Time;durP1;ratioP1;P1;durP2;ratioP2;P2;SDS_P1;SDS_P2;PMS_P1;PMS_P2;Temp;Humidity;BMP_temperature;BMP_pressure;BME280_temperature;BME280_humidity;BME280_pressure;Samples;Min_cycle;Max_cycle;Signal;HPM_P1;HPM_P2
2021/10/25 00:00:28;;;;;;;0.10;0.10;;;;;;;;;;4974365;28;20214;-72
2021/10/25 00:02:56;;;;;;;0.00;0.00;;;;;;;;;;4974081;28;20201;-72
2021/10/25 00:05:25;;;;;;;0.87;0.57;;;;;;;;;;4970419;28;20237;-73
2021/10/25 00:07:53;;;;;;;0.70;0.63;;;;;;;;;;4970982;28;20614;-73
2021/10/25 00:10:21;;;;;;;1.77;1.50;;;;;;;;;;4970450;28;20220;-73
2021/10/25 00:12:48;;;;;;;0.70;0.50;;;;;;;;;;4972124;28;20230;-73
2021/10/25 00:15:16;;;;;;;0.67;0.43;;;;;;;;;;4970201;28;20236;-73
2021/10/25 00:17:43;;;;;;;0.50;0.50;;;;;;;;;;4971677;28;20214;-73
2021/10/25 00:20:12;;;;;;;0.10;0.10;;;;;;;;;;4975173;28;20196;-72
2021/10/25 00:22:41;;;;;;;0.37;0.37;;;;;;;;;;4973175;28;20214;-72
2021/10/25 00:25:08;;;;;;;0.00;0.00;;;;;;;;;;4972562;28;20214;-73
2021/10/25 00:27:36;;;;;;;0.33;0.33;;;;;;;;;;4971023;28;20240;-72
2021/10/25 00:30:04;;;;;;;6.60;0.80;;;;;;;;;;4971862;28;20208;-73
2021/10/25 00:32:31;;;;;;;0.00;0.00;;;;;;;;;;4971183;28;20209;-72
2021/10/25 00:34:58;;;;;;;1.30;1.13;;;;;;;;;;4972920;28;20595;-72
2021/10/25 00:37:26;;;;;;;0.00;0.00;;;;;;;;;;4972436;28;20229;-72
2021/10/25 00:39:55;;;;;;;0.80;0.80;;;;;;;;;;4969756;28;20201;-73
2021/10/25 00:42:22;;;;;;;0.00;0.00;;;;;;;;;;4972458;28;20206;-73
2021/10/25 00:44:50;;;;;;;0.17;0.17;;;;;;;;;;4970574;28;20198;-73
2021/10/25 00:47:18;;;;;;;0.63;0.63;;;;;;;;;;4973861;28;22079;-72
2021/10/25 00:49:45;;;;;;;0.03;0.03;;;;;;;;;;4970092;28;20237;-72
2021/10/25 00:52:13;;;;;;;0.00;0.00;;;;;;;;;;4972777;28;20208;-72
2021/10/25 00:54:41;;;;;;;0.97;0.73;;;;;;;;;;4970119;28;20214;-72
2021/10/25 00:57:10;;;;;;;0.00;0.00;;;;;;;;;;4971236;28;20679;-72
2021/10/25 00:59:37;;;;;;;0.00;0.00;;;;;;;;;;4969717;28;20205;-72
2021/10/25 01:02:05;;;;;;;0.00;0.00;;;;;;;;;;4973373;28;20213;-72
2021/10/25 01:04:32;;;;;;;1.23;1.13;;;;;;;;;;4971911;28;20936;-72
2021/10/25 01:07:00;;;;;;;1.63;1.53;;;;;;;;;;4972249;28;20222;-72
2021/10/25 01:09:28;;;;;;;0.33;0.33;;;;;;;;;;4977913;28;20221;-72
2021/10/25 01:11:56;;;;;;;1.23;0.57;;;;;;;;;;4970944;28;20687;-72
2021/10/25 01:14:25;;;;;;;0.00;0.00;;;;;;;;;;4969996;28;20210;-73
2021/10/25 01:16:53;;;;;;;0.17;0.17;;;;;;;;;;4972173;28;20279;-73
2021/10/25 01:19:21;;;;;;;0.03;0.03;;;;;;;;;;4971526;28;20225;-74
2021/10/25 01:21:50;;;;;;;0.33;0.33;;;;;;;;;;4971774;28;20309;-73
2021/10/25 01:24:17;;;;;;;0.87;0.87;;;;;;;;;;4974096;28;20292;-72
2021/10/25 01:26:45;;;;;;;0.10;0.10;;;;;;;;;;4973961;28;20222;-73
2021/10/25 01:29:13;;;;;;;0.00;0.00;;;;;;;;;;4974762;28;20214;-72
2021/10/25 01:31:40;;;;;;;2.97;2.87;;;;;;;;;;4974681;28;20696;-72
2021/10/25 01:34:10;;;;;;;1.30;1.20;;;;;;;;;;4973210;28;20202;-73
2021/10/25 01:36:38;;;;;;;0.00;0.00;;;;;;;;;;4975638;28;21161;-74
2021/10/25 01:39:07;;;;;;;0.00;0.00;;;;;;;;;;4974293;28;20216;-74
2021/10/25 01:41:35;;;;;;;1.30;0.97;;;;;;;;;;4975492;28;20217;-74
2021/10/25 01:44:02;;;;;;;0.90;0.90;;;;;;;;;;4973298;28;20209;-74
2021/10/25 01:46:30;;;;;;;0.10;0.10;;;;;;;;;;4971777;28;21561;-74
2021/10/25 01:48:57;;;;;;;0.00;0.00;;;;;;;;;;4974738;28;20205;-73
2021/10/25 01:51:24;;;;;;;1.97;1.30;;;;;;;;;;4973225;28;20205;-74
2021/10/25 01:53:52;;;;;;;0.10;0.10;;;;;;;;;;4971268;28;20595;-74
2021/10/25 01:56:21;;;;;;;0.53;0.53;;;;;;;;;;4975298;28;20216;-73
2021/10/25 01:58:48;;;;;;;0.77;0.40;;;;;;;;;;4977468;28;20202;-73
2021/10/25 02:01:20;;;;;;;0.70;0.50;;;;;;;;;;4980884;28;20209;-73
2021/10/25 02:03:48;;;;;;;0.50;0.50;;;;;;;;;;4980090;28;20213;-73
2021/10/25 02:06:15;;;;;;;0.37;0.37;;;;;;;;;;4982546;28;20233;-74
2021/10/25 02:08:43;;;;;;;0.93;0.53;;;;;;;;;;4980491;28;20209;-74
2021/10/25 02:11:10;;;;;;;0.23;0.23;;;;;;;;;;4979927;28;20210;-74
2021/10/25 02:13:39;;;;;;;0.93;0.93;;;;;;;;;;4982050;28;20213;-74
2021/10/25 02:16:06;;;;;;;0.50;0.30;;;;;;;;;;4981309;28;20197;-74
2021/10/25 02:18:34;;;;;;;0.53;0.53;;;;;;;;;;4980786;28;20229;-73
2021/10/25 02:21:01;;;;;;;0.40;0.40;;;;;;;;;;4981636;28;20698;-74
2021/10/25 02:23:28;;;;;;;0.23;0.23;;;;;;;;;;4981691;28;20202;-74
2021/10/25 02:25:56;;;;;;;0.47;0.47;;;;;;;;;;4980971;28;20202;-74
2021/10/25 02:28:24;;;;;;;0.20;0.20;;;;;;;;;;4981269;28;20292;-73
2021/10/25 02:30:53;;;;;;;0.07;0.07;;;;;;;;;;4980557;28;20210;-74
2021/10/25 02:33:21;;;;;;;0.03;0.03;;;;;;;;;;4980856;28;20213;-74
2021/10/25 02:35:49;;;;;;;0.63;0.63;;;;;;;;;;4980970;28;20212;-73
2021/10/25 02:38:17;;;;;;;0.57;0.30;;;;;;;;;;4979489;28;20260;-70
2021/10/25 02:40:44;;;;;;;3.67;1.70;;;;;;;;;;4980788;28;20209;-73
2021/10/25 02:43:11;;;;;;;0.60;0.60;;;;;;;;;;4980172;28;20685;-73
2021/10/25 02:45:39;;;;;;;1.00;0.60;;;;;;;;;;4981069;28;20260;-72
2021/10/25 02:48:10;;;;;;;0.90;0.83;;;;;;;;;;4981275;28;20236;-73
2021/10/25 02:50:37;;;;;;;0.00;0.00;;;;;;;;;;4980374;28;20229;-72
2021/10/25 02:53:07;;;;;;;0.87;0.83;;;;;;;;;;4980771;28;20304;-73
2021/10/25 02:55:35;;;;;;;0.40;0.40;;;;;;;;;;4980826;28;20206;-73
2021/10/25 02:58:03;;;;;;;0.57;0.57;;;;;;;;;;4981367;28;20563;-73
2021/10/25 03:00:30;;;;;;;1.07;0.67;;;;;;;;;;4978241;28;20207;-73
2021/10/25 03:02:58;;;;;;;0.50;0.50;;;;;;;;;;4979788;28;20808;-73
2021/10/25 03:05:26;;;;;;;0.00;0.00;;;;;;;;;;4981289;28;20281;-73
2021/10/25 03:07:54;;;;;;;0.40;0.40;;;;;;;;;;4979173;28;20605;-73
2021/10/25 03:10:21;;;;;;;0.53;0.33;;;;;;;;;;4977871;28;20206;-72
2021/10/25 03:12:49;;;;;;;0.30;0.03;;;;;;;;;;4980710;28;20210;-72
2021/10/25 03:15:17;;;;;;;0.43;0.43;;;;;;;;;;4979604;28;20575;-72
2021/10/25 03:17:45;;;;;;;0.00;0.00;;;;;;;;;;4980654;28;20284;-72
2021/10/25 03:20:13;;;;;;;0.43;0.27;;;;;;;;;;4983823;28;20209;-72
2021/10/25 03:22:43;;;;;;;0.20;0.13;;;;;;;;;;4981086;28;20209;-72
2021/10/25 03:25:11;;;;;;;1.13;1.03;;;;;;;;;;4979459;28;20205;-73
2021/10/25 03:27:39;;;;;;;0.33;0.33;;;;;;;;;;4981044;28;20242;-72
2021/10/25 03:30:07;;;;;;;0.03;0.03;;;;;;;;;;4981824;28;20194;-73
2021/10/25 03:32:35;;;;;;;0.20;0.20;;;;;;;;;;4980859;28;20204;-72
2021/10/25 03:35:02;;;;;;;0.67;0.67;;;;;;;;;;4977599;28;20234;-72
2021/10/25 03:37:32;;;;;;;0.00;0.00;;;;;;;;;;4978439;28;20240;-72
2021/10/25 03:40:02;;;;;;;0.00;0.00;;;;;;;;;;4978863;28;20622;-72
2021/10/25 03:42:32;;;;;;;0.00;0.00;;;;;;;;;;4978341;28;20205;-72
2021/10/25 03:45:05;;;;;;;0.00;0.00;;;;;;;;;;4980176;28;20221;-72
2021/10/25 03:47:37;;;;;;;0.63;0.63;;;;;;;;;;4979329;28;20226;-72
2021/10/25 03:50:08;;;;;;;0.10;0.10;;;;;;;;;;4980226;28;20357;-72
2021/10/25 03:52:40;;;;;;;1.80;1.17;;;;;;;;;;4980311;28;20694;-72
2021/10/25 03:55:15;;;;;;;0.20;0.20;;;;;;;;;;4978325;28;20243;-74
2021/10/25 04:01:07;;;;;;;0.20;0.10;;;;;;;;;;5057448;27;21386;-73
2021/10/25 04:04:11;;;;;;;0.47;0.47;;;;;;;;;;5034409;28;20312;-71
2021/10/25 04:26:16;;;;;;;0.10;0.10;;;;;;;;;;5031873;28;21189;-73
2021/10/25 04:28:44;;;;;;;0.00;0.00;;;;;;;;;;5033920;28;20241;-73
2021/10/25 04:31:12;;;;;;;0.43;0.43;;;;;;;;;;5041025;28;20747;-70
2021/10/25 04:33:40;;;;;;;0.30;0.30;;;;;;;;;;5059029;28;20204;-71
2021/10/25 04:36:08;;;;;;;0.40;0.40;;;;;;;;;;5042509;28;20684;-73
2021/10/25 04:38:35;;;;;;;0.10;0.10;;;;;;;;;;5031024;28;20676;-73
2021/10/25 04:41:03;;;;;;;0.00;0.00;;;;;;;;;;5031897;28;20231;-72
2021/10/25 04:43:30;;;;;;;1.30;1.13;;;;;;;;;;5034364;28;20214;-73
2021/10/25 04:45:58;;;;;;;0.97;0.73;;;;;;;;;;5033067;28;20756;-73
2021/10/25 04:48:25;;;;;;;0.83;0.40;;;;;;;;;;5030899;28;22387;-74
2021/10/25 04:50:54;;;;;;;0.57;0.13;;;;;;;;;;5032319;28;20215;-73
2021/10/25 04:53:21;;;;;;;0.63;0.63;;;;;;;;;;5030124;28;20208;-74
2021/10/25 04:55:49;;;;;;;0.30;0.30;;;;;;;;;;5031811;28;20550;-73
2021/10/25 04:58:16;;;;;;;0.00;0.00;;;;;;;;;;5029458;28;20208;-73
2021/10/25 05:00:43;;;;;;;0.03;0.03;;;;;;;;;;5037263;28;20204;-73
2021/10/25 05:03:11;;;;;;;0.07;0.07;;;;;;;;;;5043319;28;20207;-73
2021/10/25 05:05:38;;;;;;;1.20;0.77;;;;;;;;;;5044929;28;20658;-72
2021/10/25 05:08:07;;;;;;;3.80;1.50;;;;;;;;;;5045674;28;20234;-72
2021/10/25 05:10:34;;;;;;;1.20;1.17;;;;;;;;;;5029026;28;20221;-72
2021/10/25 05:13:02;;;;;;;0.07;0.07;;;;;;;;;;5017813;28;20204;-72
2021/10/25 05:15:29;;;;;;;0.30;0.30;;;;;;;;;;5017250;28;20215;-72
2021/10/25 05:17:57;;;;;;;2.77;2.33;;;;;;;;;;5021492;28;20206;-72
2021/10/25 05:20:24;;;;;;;0.10;0.10;;;;;;;;;;5015272;28;20208;-73
2021/10/25 05:22:51;;;;;;;0.50;0.37;;;;;;;;;;5020556;28;20211;-72
2021/10/25 05:25:20;;;;;;;1.07;0.97;;;;;;;;;;5019495;28;20207;-73
2021/10/25 05:27:48;;;;;;;1.63;1.53;;;;;;;;;;5016915;28;20201;-72
2021/10/25 05:30:15;;;;;;;0.53;0.43;;;;;;;;;;5018029;28;20239;-74
2021/10/25 05:32:43;;;;;;;0.00;0.00;;;;;;;;;;5017596;28;20208;-73
2021/10/25 05:35:10;;;;;;;0.10;0.10;;;;;;;;;;5017314;28;20204;-73
2021/10/25 05:37:37;;;;;;;0.90;0.90;;;;;;;;;;5019947;28;20288;-73
2021/10/25 05:40:05;;;;;;;0.70;0.70;;;;;;;;;;5021676;28;20583;-73
2021/10/25 05:42:34;;;;;;;0.27;0.20;;;;;;;;;;5013973;28;20210;-73
2021/10/25 05:45:04;;;;;;;0.30;0.30;;;;;;;;;;5019615;28;20200;-73
2021/10/25 05:47:32;;;;;;;0.10;0.10;;;;;;;;;;5018388;28;20211;-74
2021/10/25 05:50:00;;;;;;;0.17;0.17;;;;;;;;;;5019305;28;20261;-74
2021/10/25 05:52:27;;;;;;;1.70;1.70;;;;;;;;;;5020945;28;20213;-73
2021/10/25 05:54:55;;;;;;;0.30;0.30;;;;;;;;;;5015945;28;20695;-74
2021/10/25 05:57:23;;;;;;;1.30;0.93;;;;;;;;;;5016967;28;20789;-74
2021/10/25 05:59:53;;;;;;;0.00;0.00;;;;;;;;;;5022677;28;20233;-74
2021/10/25 06:02:26;;;;;;;0.00;0.00;;;;;;;;;;5018758;28;20199;-75
2021/10/25 06:04:54;;;;;;;0.00;0.00;;;;;;;;;;5016315;28;20254;-75
2021/10/25 06:07:21;;;;;;;0.07;0.00;;;;;;;;;;5015589;28;20210;-76
2021/10/25 06:09:48;;;;;;;0.10;0.03;;;;;;;;;;5015830;28;20227;-77
2021/10/25 06:12:17;;;;;;;0.00;0.00;;;;;;;;;;5016473;28;20199;-78
2021/10/25 06:14:47;;;;;;;2.00;0.50;;;;;;;;;;5030026;28;20678;-77
2021/10/25 06:17:36;;;;;;;1.93;1.80;;;;;;;;;;5032790;28;20302;-78
2021/10/25 06:20:04;;;;;;;0.00;0.00;;;;;;;;;;5029843;28;20196;-78
2021/10/25 06:22:35;;;;;;;0.50;0.50;;;;;;;;;;5015818;28;20204;-79
2021/10/25 06:25:02;;;;;;;0.00;0.00;;;;;;;;;;5015729;28;20303;-78
2021/10/25 06:27:30;;;;;;;0.67;0.20;;;;;;;;;;5016361;28;20200;-78
2021/10/25 06:29:57;;;;;;;0.10;0.10;;;;;;;;;;5017596;28;20236;-78
2021/10/25 06:32:27;;;;;;;0.77;0.77;;;;;;;;;;5019287;28;20204;-80
2021/10/25 06:34:56;;;;;;;0.00;0.00;;;;;;;;;;5021389;28;20196;-80
2021/10/25 06:37:27;;;;;;;0.00;0.00;;;;;;;;;;5016466;28;20215;-80
2021/10/25 06:39:56;;;;;;;0.67;0.63;;;;;;;;;;5014809;28;20208;-80
2021/10/25 06:42:26;;;;;;;0.50;0.50;;;;;;;;;;5017770;28;20209;-80
2021/10/25 06:44:54;;;;;;;1.00;0.90;;;;;;;;;;5019849;28;20205;-80
2021/10/25 06:47:22;;;;;;;1.67;1.57;;;;;;;;;;5027821;28;20207;-80
2021/10/25 06:49:51;;;;;;;2.37;2.03;;;;;;;;;;5020955;28;20567;-80
2021/10/25 06:52:19;;;;;;;0.00;0.00;;;;;;;;;;5016755;28;20579;-77
2021/10/25 06:54:46;;;;;;;0.27;0.27;;;;;;;;;;5016714;28;20844;-76
2021/10/25 06:57:14;;;;;;;1.23;1.23;;;;;;;;;;5014411;28;20605;-78
2021/10/25 06:59:41;;;;;;;0.50;0.50;;;;;;;;;;5020772;28;20254;-83
2021/10/25 07:02:08;;;;;;;0.00;0.00;;;;;;;;;;5029220;28;20678;-82
2021/10/25 07:04:36;;;;;;;0.60;0.43;;;;;;;;;;5022374;28;20204;-81
2021/10/25 07:07:05;;;;;;;0.33;0.33;;;;;;;;;;5022204;28;20223;-82
2021/10/25 07:09:33;;;;;;;1.43;1.33;;;;;;;;;;5018971;28;20228;-82
2021/10/25 07:12:01;;;;;;;1.33;1.23;;;;;;;;;;5025205;28;20228;-81
2021/10/25 07:14:32;;;;;;;0.20;0.20;;;;;;;;;;5018703;28;20215;-82
2021/10/25 07:17:12;;;;;;;0.80;0.80;;;;;;;;;;5018246;28;20192;-82
2021/10/25 07:19:59;;;;;;;0.00;0.00;;;;;;;;;;5017105;28;20211;-81
2021/10/25 07:59:19;;;;;;;1.57;1.10;;;;;;;;;;5019789;28;20209;-84
2021/10/25 08:07:04;;;;;;;1.00;1.00;;;;;;;;;;5074319;28;20209;-85
2021/10/25 08:09:45;;;;;;;0.00;0.00;;;;;;;;;;5073600;28;20678;-84
2021/10/25 08:12:15;;;;;;;2.60;1.87;;;;;;;;;;5070870;28;20197;-85
2021/10/25 08:14:49;;;;;;;2.37;1.47;;;;;;;;;;5074375;28;20302;-84
2021/10/25 08:17:21;;;;;;;0.33;0.33;;;;;;;;;;5072859;28;20213;-83
2021/10/25 08:19:50;;;;;;;2.27;2.13;;;;;;;;;;5072419;28;20735;-82
2021/10/25 08:22:19;;;;;;;0.30;0.30;;;;;;;;;;5072907;28;20241;-83
2021/10/25 08:24:48;;;;;;;1.57;1.47;;;;;;;;;;5067947;28;20201;-82
2021/10/25 08:27:16;;;;;;;3.90;1.03;;;;;;;;;;5071857;28;21014;-85
2021/10/25 08:29:46;;;;;;;2.63;2.17;;;;;;;;;;5078542;28;20285;-82
2021/10/25 08:32:23;;;;;;;1.30;1.20;;;;;;;;;;5083665;28;20212;-83
2021/10/25 08:35:01;;;;;;;1.30;1.07;;;;;;;;;;5080918;28;20259;-81
2021/10/25 08:40:14;;;;;;;0.23;0.23;;;;;;;;;;5070837;28;20221;-82
2021/10/25 08:42:42;;;;;;;0.20;0.20;;;;;;;;;;5069087;28;20259;-81
2021/10/25 08:45:12;;;;;;;1.23;1.17;;;;;;;;;;5072099;28;20567;-87
2021/10/25 08:47:43;;;;;;;3.07;2.33;;;;;;;;;;5069193;28;20206;-81
2021/10/25 08:50:13;;;;;;;2.33;1.63;;;;;;;;;;5069796;28;20211;-84
2021/10/25 08:52:40;;;;;;;2.03;1.03;;;;;;;;;;5072081;28;20672;-85
2021/10/25 08:55:09;;;;;;;3.07;2.77;;;;;;;;;;5070632;28;20232;-86
2021/10/25 08:57:37;;;;;;;1.60;1.37;;;;;;;;;;5067863;28;20207;-81
2021/10/25 09:00:07;;;;;;;1.83;1.73;;;;;;;;;;5075601;28;20202;-80
2021/10/25 09:02:36;;;;;;;1.27;1.20;;;;;;;;;;5100197;28;20238;-74
2021/10/25 09:05:05;;;;;;;0.87;0.87;;;;;;;;;;5079849;28;20708;-79
2021/10/25 09:07:48;;;;;;;0.87;0.87;;;;;;;;;;5083270;28;20207;-78
2021/10/25 09:10:22;;;;;;;2.43;1.73;;;;;;;;;;5075590;28;20202;-79
2021/10/25 09:12:53;;;;;;;0.40;0.40;;;;;;;;;;5072405;28;21076;-80
2021/10/25 09:15:20;;;;;;;5.80;5.07;;;;;;;;;;5063953;28;20280;-79
2021/10/25 09:17:48;;;;;;;1.03;0.80;;;;;;;;;;5063615;28;20230;-79
2021/10/25 09:20:17;;;;;;;4.07;3.67;;;;;;;;;;5060663;28;20199;-80
2021/10/25 09:22:46;;;;;;;1.30;0.93;;;;;;;;;;5064067;28;20267;-80
2021/10/25 09:25:14;;;;;;;0.63;0.63;;;;;;;;;;5062547;28;20206;-79
2021/10/25 09:27:43;;;;;;;0.97;0.97;;;;;;;;;;5060571;28;20199;-81
2021/10/25 09:30:12;;;;;;;1.90;0.97;;;;;;;;;;5057948;28;20207;-79
2021/10/25 09:32:41;;;;;;;0.77;0.77;;;;;;;;;;5063221;28;20202;-81
2021/10/25 09:35:16;;;;;;;1.23;0.93;;;;;;;;;;5060914;28;20256;-78
2021/10/25 09:37:52;;;;;;;2.07;1.87;;;;;;;;;;5061920;28;20214;-78
2021/10/25 09:40:22;;;;;;;0.10;0.10;;;;;;;;;;5062093;28;20207;-79
2021/10/25 09:51:20;;;;;;;1.50;1.30;;;;;;;;;;5069077;28;20218;-80
2021/10/25 09:53:48;;;;;;;0.40;0.40;;;;;;;;;;5058442;28;20196;-82
2021/10/25 09:56:16;;;;;;;1.47;1.40;;;;;;;;;;5057677;28;20207;-82
2021/10/25 09:58:53;;;;;;;0.17;0.17;;;;;;;;;;5059178;28;20668;-81
2021/10/25 10:01:25;;;;;;;0.10;0.10;;;;;;;;;;5056206;28;20211;-81
2021/10/25 10:03:54;;;;;;;0.67;0.67;;;;;;;;;;5057061;28;20636;-82
2021/10/25 10:06:22;;;;;;;0.40;0.40;;;;;;;;;;5059026;28;20210;-81
2021/10/25 10:08:50;;;;;;;1.20;1.10;;;;;;;;;;5058659;28;20257;-80
2021/10/25 10:11:17;;;;;;;4.50;4.10;;;;;;;;;;5064190;28;20605;-80
2021/10/25 10:13:45;;;;;;;1.90;1.67;;;;;;;;;;5057377;28;20211;-81
2021/10/25 10:16:12;;;;;;;0.17;0.17;;;;;;;;;;5057446;28;20219;-80
2021/10/25 10:18:42;;;;;;;0.37;0.37;;;;;;;;;;5058820;28;20203;-80
2021/10/25 10:21:13;;;;;;;2.40;2.30;;;;;;;;;;5054862;28;20207;-80
2021/10/25 10:23:42;;;;;;;1.70;1.60;;;;;;;;;;5058351;28;20672;-80
2021/10/25 10:26:13;;;;;;;1.80;1.70;;;;;;;;;;5056719;28;20669;-81
2021/10/25 10:28:44;;;;;;;0.73;0.57;;;;;;;;;;5056001;28;20203;-79
2021/10/25 10:31:12;;;;;;;0.90;0.90;;;;;;;;;;5055205;28;20211;-79
2021/10/25 10:33:41;;;;;;;1.00;0.93;;;;;;;;;;5058795;28;20195;-77
2021/10/25 10:36:14;;;;;;;3.60;2.67;;;;;;;;;;5055878;28;20591;-80
2021/10/25 10:38:46;;;;;;;3.20;1.80;;;;;;;;;;5058994;28;20230;-80
2021/10/25 10:41:14;;;;;;;1.27;1.17;;;;;;;;;;5068093;28;20575;-79
2021/10/25 10:43:42;;;;;;;3.23;1.30;;;;;;;;;;5055661;28;20329;-79
2021/10/25 10:46:13;;;;;;;4.57;3.80;;;;;;;;;;5056736;28;20569;-79
2021/10/25 10:48:44;;;;;;;1.63;1.53;;;;;;;;;;5063341;28;21142;-80
2021/10/25 10:51:15;;;;;;;0.67;0.67;;;;;;;;;;5056341;28;20209;-79
2021/10/25 10:53:50;;;;;;;0.40;0.40;;;;;;;;;;5055836;28;20207;-78
2021/10/25 10:56:23;;;;;;;2.03;1.93;;;;;;;;;;5056284;28;20222;-79
2021/10/25 10:58:53;;;;;;;2.43;0.73;;;;;;;;;;5049376;28;20191;-78
2021/10/25 11:01:21;;;;;;;0.27;0.13;;;;;;;;;;5042554;28;20217;-78
2021/10/25 11:03:57;;;;;;;4.10;2.23;;;;;;;;;;5046135;28;20203;-79
2021/10/25 11:06:30;;;;;;;2.73;2.53;;;;;;;;;;5048351;28;20221;-78
2021/10/25 11:08:58;;;;;;;2.80;2.57;;;;;;;;;;5038854;28;20239;-78
2021/10/25 11:11:26;;;;;;;0.30;0.30;;;;;;;;;;5039712;28;20485;-79
2021/10/25 11:13:56;;;;;;;0.50;0.37;;;;;;;;;;5032083;28;20561;-79
2021/10/25 11:16:28;;;;;;;0.57;0.57;;;;;;;;;;5035967;28;20211;-79
2021/10/25 11:18:56;;;;;;;1.13;0.93;;;;;;;;;;5036175;28;20615;-79
2021/10/25 11:21:29;;;;;;;2.53;1.03;;;;;;;;;;5033682;28;20199;-80
2021/10/25 11:23:59;;;;;;;1.53;0.50;;;;;;;;;;5032772;28;20204;-80
2021/10/25 11:26:28;;;;;;;0.73;0.73;;;;;;;;;;5032569;28;20218;-80
2021/10/25 11:29:03;;;;;;;0.47;0.37;;;;;;;;;;5035591;28;20745;-79
2021/10/25 11:31:31;;;;;;;1.00;0.97;;;;;;;;;;5034819;28;20305;-80
2021/10/25 11:33:58;;;;;;;5.83;1.67;;;;;;;;;;5034794;28;20204;-80
2021/10/25 11:36:30;;;;;;;0.77;0.77;;;;;;;;;;5036408;28;20199;-83
2021/10/25 11:38:58;;;;;;;0.87;0.67;;;;;;;;;;5034851;28;20692;-85
2021/10/25 11:41:25;;;;;;;1.90;0.37;;;;;;;;;;5035352;28;20216;-82
2021/10/25 11:43:54;;;;;;;0.53;0.53;;;;;;;;;;5041600;28;20208;-83
2021/10/25 11:46:23;;;;;;;0.77;0.77;;;;;;;;;;5040523;28;20222;-82
2021/10/25 11:48:55;;;;;;;0.67;0.67;;;;;;;;;;5040816;28;20207;-82
2021/10/25 11:51:23;;;;;;;0.00;0.00;;;;;;;;;;5042375;28;20204;-84
2021/10/25 11:53:57;;;;;;;0.10;0.10;;;;;;;;;;5041674;28;20207;-82
2021/10/25 11:56:24;;;;;;;0.77;0.77;;;;;;;;;;5042632;28;20289;-76
2021/10/25 11:58:52;;;;;;;0.37;0.37;;;;;;;;;;5044799;28;20227;-82
2021/10/25 12:01:19;;;;;;;0.20;0.20;;;;;;;;;;5044494;28;20207;-83
2021/10/25 12:03:47;;;;;;;1.37;1.10;;;;;;;;;;5045278;28;20215;-83
2021/10/25 12:06:16;;;;;;;0.30;0.30;;;;;;;;;;5047878;28;20579;-86
2021/10/25 12:08:54;;;;;;;1.80;1.70;;;;;;;;;;5041452;28;20203;-80
2021/10/25 12:11:35;;;;;;;0.13;0.13;;;;;;;;;;5043561;28;20611;-85
2021/10/25 12:14:03;;;;;;;2.67;1.60;;;;;;;;;;5044996;28;20669;-83
2021/10/25 12:16:32;;;;;;;10.43;1.20;;;;;;;;;;5047163;28;20222;-84
2021/10/25 12:19:00;;;;;;;0.17;0.10;;;;;;;;;;5041402;28;20366;-82
2021/10/25 12:21:34;;;;;;;0.93;0.93;;;;;;;;;;5042334;28;20207;-80
2021/10/25 12:24:04;;;;;;;0.67;0.67;;;;;;;;;;5038989;28;20210;-81
2021/10/25 12:26:33;;;;;;;0.03;0.03;;;;;;;;;;5037487;28;20286;-82
2021/10/25 12:29:01;;;;;;;0.00;0.00;;;;;;;;;;5040133;28;20207;-81
2021/10/25 12:31:29;;;;;;;0.97;0.97;;;;;;;;;;5037286;28;20199;-79
2021/10/25 12:34:03;;;;;;;2.20;2.10;;;;;;;;;;5033743;28;20575;-80
2021/10/25 12:36:35;;;;;;;0.10;0.10;;;;;;;;;;5034068;28;20707;-81
2021/10/25 12:39:07;;;;;;;1.00;0.80;;;;;;;;;;5034382;28;20235;-81
2021/10/25 12:41:46;;;;;;;2.03;1.67;;;;;;;;;;5036665;28;20566;-81
2021/10/25 12:44:22;;;;;;;1.27;1.17;;;;;;;;;;5035091;28;20223;-82
2021/10/25 12:46:51;;;;;;;2.37;0.73;;;;;;;;;;5034098;28;20231;-81
2021/10/25 12:49:20;;;;;;;1.73;1.50;;;;;;;;;;5035501;28;20211;-79
2021/10/25 12:51:47;;;;;;;0.20;0.20;;;;;;;;;;5036355;28;20207;-82
2021/10/25 12:54:15;;;;;;;2.00;1.53;;;;;;;;;;5034745;28;20253;-81
2021/10/25 12:56:44;;;;;;;1.93;1.83;;;;;;;;;;5034626;28;20219;-83
2021/10/25 12:59:14;;;;;;;0.53;0.53;;;;;;;;;;5035989;28;20220;-79
2021/10/25 13:01:51;;;;;;;0.77;0.77;;;;;;;;;;5032168;28;20207;-80
2021/10/25 13:04:20;;;;;;;0.20;0.20;;;;;;;;;;5034972;28;20940;-81
2021/10/25 13:06:48;;;;;;;0.00;0.00;;;;;;;;;;5036057;28;20207;-80
2021/10/25 13:09:15;;;;;;;1.27;1.17;;;;;;;;;;5035836;28;20203;-82
2021/10/25 13:11:44;;;;;;;0.23;0.10;;;;;;;;;;5034315;28;20218;-82
2021/10/25 13:14:13;;;;;;;0.83;0.57;;;;;;;;;;5034265;28;20202;-83
2021/10/25 13:16:45;;;;;;;0.00;0.00;;;;;;;;;;5036087;28;20855;-84
2021/10/25 13:19:14;;;;;;;1.17;0.70;;;;;;;;;;5034749;28;20742;-82
2021/10/25 13:21:41;;;;;;;1.40;1.03;;;;;;;;;;5032876;28;20218;-79
2021/10/25 13:24:09;;;;;;;0.30;0.30;;;;;;;;;;5037161;28;20202;-81
2021/10/25 13:26:38;;;;;;;0.20;0.20;;;;;;;;;;5035904;28;20199;-81
2021/10/25 13:29:06;;;;;;;1.50;1.20;;;;;;;;;;5033098;28;20235;-82
2021/10/25 13:31:35;;;;;;;3.83;2.00;;;;;;;;;;5030917;28;20235;-80
2021/10/25 13:34:03;;;;;;;1.37;1.37;;;;;;;;;;5036078;28;20265;-77
2021/10/25 13:36:30;;;;;;;0.83;0.83;;;;;;;;;;5035387;28;20606;-74
2021/10/25 13:38:58;;;;;;;0.87;0.87;;;;;;;;;;5037298;28;20235;-74
2021/10/25 13:41:26;;;;;;;0.73;0.60;;;;;;;;;;5045394;28;20668;-77
2021/10/25 13:43:55;;;;;;;0.67;0.67;;;;;;;;;;5034547;28;20235;-75
2021/10/25 13:46:22;;;;;;;0.93;0.93;;;;;;;;;;5032802;28;20286;-76
2021/10/25 13:48:51;;;;;;;0.00;0.00;;;;;;;;;;5035332;28;20211;-72
2021/10/25 13:51:19;;;;;;;0.07;0.07;;;;;;;;;;5038401;28;20199;-73
2021/10/25 13:53:46;;;;;;;0.97;0.93;;;;;;;;;;5033263;28;21428;-69
2021/10/25 13:56:14;;;;;;;1.70;1.10;;;;;;;;;;5033441;28;20298;-73
2021/10/25 13:58:41;;;;;;;0.53;0.53;;;;;;;;;;5035767;28;20230;-72
2021/10/25 14:01:09;;;;;;;2.27;1.70;;;;;;;;;;5034518;28;20302;-72
2021/10/25 14:03:38;;;;;;;0.33;0.33;;;;;;;;;;5031543;28;20212;-74
2021/10/25 14:06:10;;;;;;;2.53;0.93;;;;;;;;;;5036056;28;20200;-73
2021/10/25 14:08:37;;;;;;;1.07;0.97;;;;;;;;;;5037151;28;20676;-72
2021/10/25 14:11:05;;;;;;;0.67;0.60;;;;;;;;;;5037669;28;21061;-72
2021/10/25 14:13:41;;;;;;;2.20;1.70;;;;;;;;;;5046817;28;20242;-72
2021/10/25 14:16:21;;;;;;;0.00;0.00;;;;;;;;;;5047529;28;20219;-72
2021/10/25 14:18:48;;;;;;;2.53;1.33;;;;;;;;;;5045239;28;20230;-72
2021/10/25 14:21:18;;;;;;;0.80;0.80;;;;;;;;;;5039448;28;20207;-73
2021/10/25 14:23:46;;;;;;;0.47;0.47;;;;;;;;;;5041121;28;20204;-73
2021/10/25 14:26:14;;;;;;;0.43;0.30;;;;;;;;;;5043414;28;20200;-73
2021/10/25 14:28:42;;;;;;;3.40;1.13;;;;;;;;;;5062117;28;20230;-70
2021/10/25 14:31:13;;;;;;;0.00;0.00;;;;;;;;;;5040920;28;20196;-71
2021/10/25 14:33:41;;;;;;;0.10;0.10;;;;;;;;;;5040978;28;20284;-71
2021/10/25 14:36:09;;;;;;;0.07;0.07;;;;;;;;;;5044120;28;20213;-74
2021/10/25 14:38:44;;;;;;;0.13;0.13;;;;;;;;;;5056330;28;20230;-75
2021/10/25 14:43:57;;;;;;;2.37;2.07;;;;;;;;;;5051307;22;20293;-70
2021/10/25 14:46:39;;;;;;;0.07;0.07;;;;;;;;;;5047049;28;20200;-72
2021/10/25 14:49:16;;;;;;;0.00;0.00;;;;;;;;;;5036037;28;20206;-73
2021/10/25 14:54:37;;;;;;;1.57;1.47;;;;;;;;;;5020140;28;20227;-73
2021/10/25 14:57:05;;;;;;;0.20;0.20;;;;;;;;;;5023050;28;20295;-70
2021/10/25 14:59:33;;;;;;;1.10;0.90;;;;;;;;;;5022615;28;20224;-71
2021/10/25 15:02:02;;;;;;;0.77;0.77;;;;;;;;;;5020492;28;20295;-71
2021/10/25 15:04:29;;;;;;;0.40;0.23;;;;;;;;;;5023194;28;20200;-71
2021/10/25 15:06:57;;;;;;;1.20;1.20;;;;;;;;;;5024234;28;20208;-70
2021/10/25 15:09:25;;;;;;;0.30;0.27;;;;;;;;;;5021682;28;20208;-72
2021/10/25 15:11:54;;;;;;;0.70;0.70;;;;;;;;;;5022834;28;20219;-70
2021/10/25 15:14:21;;;;;;;0.27;0.23;;;;;;;;;;5022936;28;20208;-71
2021/10/25 15:16:50;;;;;;;0.93;0.90;;;;;;;;;;5022143;28;20234;-71
2021/10/25 15:19:18;;;;;;;0.30;0.30;;;;;;;;;;5021867;28;20278;-71
2021/10/25 15:21:45;;;;;;;0.50;0.50;;;;;;;;;;5022804;28;20201;-71
2021/10/25 15:24:13;;;;;;;2.00;1.50;;;;;;;;;;5015136;28;20291;-72
2021/10/25 15:26:45;;;;;;;0.87;0.87;;;;;;;;;;5015566;28;20212;-72
2021/10/25 15:29:14;;;;;;;1.97;1.80;;;;;;;;;;5013913;28;20232;-71
2021/10/25 15:31:42;;;;;;;0.27;0.27;;;;;;;;;;5012304;28;20201;-69
2021/10/25 15:34:09;;;;;;;4.67;4.37;;;;;;;;;;5014010;28;20669;-70
2021/10/25 15:36:37;;;;;;;0.33;0.33;;;;;;;;;;5016128;28;20212;-71
2021/10/25 15:39:04;;;;;;;2.30;2.20;;;;;;;;;;5013766;28;20226;-76
2021/10/25 15:41:32;;;;;;;0.70;0.53;;;;;;;;;;5014170;28;20244;-72
2021/10/25 15:44:02;;;;;;;0.83;0.83;;;;;;;;;;5011303;28;20291;-72
2021/10/25 15:46:31;;;;;;;2.40;2.20;;;;;;;;;;5015806;28;20200;-73
2021/10/25 15:48:58;;;;;;;0.83;0.40;;;;;;;;;;5012647;28;20665;-74
2021/10/25 15:51:26;;;;;;;2.63;1.30;;;;;;;;;;5012196;28;20216;-73
2021/10/25 15:53:54;;;;;;;0.10;0.10;;;;;;;;;;5019227;28;20200;-72
2021/10/25 15:56:22;;;;;;;0.30;0.30;;;;;;;;;;5020755;28;20215;-73
2021/10/25 15:58:49;;;;;;;0.30;0.30;;;;;;;;;;5012436;28;20232;-73
2021/10/25 16:01:17;;;;;;;4.27;1.67;;;;;;;;;;5014397;28;20205;-72
2021/10/25 16:03:46;;;;;;;0.23;0.23;;;;;;;;;;5018297;28;20200;-72
2021/10/25 16:06:14;;;;;;;0.37;0.37;;;;;;;;;;5021838;28;20579;-72
2021/10/25 16:08:41;;;;;;;0.53;0.53;;;;;;;;;;5017779;28;20208;-71
2021/10/25 16:11:08;;;;;;;0.60;0.60;;;;;;;;;;5013780;28;20196;-73
2021/10/25 16:13:36;;;;;;;1.40;1.30;;;;;;;;;;5013758;28;20211;-71
2021/10/25 16:16:03;;;;;;;0.97;0.97;;;;;;;;;;5013766;28;20215;-72